19 mei 2022

Tijd Code Weer Temp. Zicht Wolken Wind METAR/SPECI
19:50
V
18 °C 10 km+ - 190°   190° 7 kt METAR EDDG 191750Z 19007KT 150V230 9999 FEW008 18/17 Q1019 NOSIG
19:20
V
18 °C 10 km+ - 190°   190° 8 kt METAR EDDG 191720Z 19008KT 150V230 9999 FEW007 18/16 Q1019 NOSIG
18:50
V
18 °C 10 km+ - 190°   190° 6 kt METAR EDDG 191650Z 19006KT 160V220 CAVOK 18/17 Q1018 NOSIG
18:20
V
18 °C 10 km+ - 170°   170° 4 kt METAR EDDG 191620Z 17004KT 140V200 CAVOK 18/16 Q1017 NOSIG
17:50
V
17 °C 10 km+ - 100°   100° 5 kt METAR EDDG 191550Z 10005KT 050V130 9999 -RA NSC 17/16 Q1016 NOSIG
17:20
V
17 °C 10 km+ - 010°   010° 4 kt METAR EDDG 191520Z 01004KT 310V110 9999 FEW035 17/16 Q1017 NOSIG
16:50
V
17 °C 10 km+ - 330°   330° 10 kt METAR EDDG 191450Z 33010KT 9999 -SHRA FEW015 SCT025CB 17/16 Q1018 RETS TEMPO SHRA
16:20
V
16 °C 9 km - 280°   280° 8 kt METAR EDDG 191420Z 28008KT 220V330 9000 -TSRA FEW008 SCT025CB 16/16 Q1019 RESHRA TEMPO SHRA
15:50
I
16 °C 1,8 km 2.000 ft 270°   270° 31 47 kt METAR EDDG 191350Z 27031G47KT 1800 +TSRA FEW008 BKN020CB 16/15 Q1019 BECMG NSW
15:20
V
28 °C 10 km+ - 170°   170° 7 kt METAR EDDG 191320Z 17007KT 140V210 9999 VCTS SCT060CB 28/14 Q1015 TEMPO 27025G45KT 2000 +TSGRRA
14:50
V
29 °C 10 km+ - 170°   170° 6 kt METAR EDDG 191250Z 17006KT 100V220 9999 FEW060CB 29/14 Q1015 TEMPO 27025G45KT 2000 +TSGRRA
14:20
V
29 °C 10 km+ - 160°   160° 7 kt METAR EDDG 191220Z 16007KT 090V240 CAVOK 29/14 Q1016 NOSIG
13:50
V
28 °C 10 km+ - Var   Var 6 kt METAR EDDG 191150Z VRB06KT CAVOK 28/15 Q1016 NOSIG
13:20
V
28 °C 10 km+ - Var   Var 6 kt METAR EDDG 191120Z VRB06KT CAVOK 28/15 Q1016 NOSIG
12:50
V
26 °C 10 km+ - 170°   170° 7 kt METAR EDDG 191050Z 17007KT 130V200 CAVOK 26/14 Q1017 NOSIG
12:20
V
26 °C 10 km+ - 120°   120° 6 kt METAR EDDG 191020Z 12006KT 040V170 CAVOK 26/14 Q1017 NOSIG
11:50
V
25 °C 10 km+ - 170°   170° 7 kt METAR EDDG 190950Z 17007KT 110V210 CAVOK 25/14 Q1017 NOSIG
11:20
V
23 °C 10 km+ - 140°   140° 7 kt METAR EDDG 190920Z 14007KT 100V180 CAVOK 23/14 Q1017 NOSIG
10:50
V
24 °C 10 km+ - 150°   150° 6 kt METAR EDDG 190850Z 15006KT 100V180 CAVOK 24/14 Q1018 NOSIG
10:20
V
23 °C 10 km+ - 170°   170° 3 kt METAR EDDG 190820Z 17003KT 100V250 CAVOK 23/14 Q1018 NOSIG
09:50
V
23 °C 10 km+ - 160°   160° 3 kt METAR EDDG 190750Z 16003KT 100V250 CAVOK 23/14 Q1018 NOSIG
09:20
V
23 °C 10 km+ - Var   Var 2 kt METAR EDDG 190720Z VRB02KT CAVOK 23/14 Q1018 NOSIG
08:50
V
22 °C 10 km+ - Var   Var 3 kt METAR EDDG 190650Z VRB03KT CAVOK 22/14 Q1019 NOSIG
08:20
V
20 °C 10 km+ - Var   Var 3 kt METAR EDDG 190620Z VRB03KT CAVOK 20/14 Q1018 NOSIG
07:50
V
20 °C 10 km+ - 120°   120° 4 kt METAR EDDG 190550Z 12004KT 050V180 CAVOK 20/14 Q1018 NOSIG
07:20
V
18 °C 10 km+ - 120°   120° 3 kt METAR EDDG 190520Z 12003KT 030V190 CAVOK 18/14 Q1018 NOSIG
06:50
V
18 °C 10 km+ - Var   Var 3 kt METAR EDDG 190450Z VRB03KT CAVOK 18/13 Q1018 NOSIG
06:20
V
17 °C 10 km+ - Var   Var 3 kt METAR EDDG 190420Z VRB03KT CAVOK 17/13 Q1018 NOSIG
05:50
V
17 °C 10 km+ - Var   Var 2 kt METAR EDDG 190350Z VRB02KT CAVOK 17/13 Q1018 NOSIG
05:20
V
18 °C 10 km+ - 110°   110° 3 kt METAR EDDG 190320Z 11003KT 040V190 CAVOK 18/13 Q1018 NOSIG
04:50
V
18 °C 10 km+ - Var   Var 3 kt METAR EDDG 190250Z VRB03KT CAVOK 18/13 Q1018 NOSIG
04:20
V
18 °C 10 km+ - Var   Var 3 kt METAR EDDG 190220Z VRB03KT CAVOK 18/13 Q1018 NOSIG
03:50
V
18 °C 10 km+ - 110°   110° 3 kt METAR EDDG 190150Z 11003KT 030V180 CAVOK 18/14 Q1018 NOSIG
03:20
V
18 °C 10 km+ - Var   Var 2 kt METAR EDDG 190120Z VRB02KT CAVOK 18/14 Q1018 NOSIG
02:50
V
19 °C 10 km+ - 130°   130° 4 kt METAR EDDG 190050Z 13004KT 080V170 CAVOK 19/14 Q1018 NOSIG
02:20
V
18 °C 10 km+ - 120°   120° 3 kt METAR EDDG 190020Z 12003KT 060V190 CAVOK 18/15 Q1019 NOSIG
01:50
V
17 °C 10 km+ - Var   Var 2 kt METAR EDDG 182350Z VRB02KT CAVOK 17/15 Q1019 NOSIG
01:20
V
17 °C 10 km+ - 110°   110° 1 kt METAR EDDG 182320Z 11001KT CAVOK 17/15 Q1019 NOSIG
00:50
V
18 °C 10 km+ - Var   000° 0 kt METAR EDDG 182250Z 00000KT CAVOK 18/16 Q1019 NOSIG
00:20
V
19 °C 10 km+ - 130°   130° 2 kt METAR EDDG 182220Z 13002KT CAVOK 19/16 Q1019 NOSIG

18 mei 2022

Tijd Code Weer Temp. Zicht Wolken Wind METAR/SPECI
23:50
V
19 °C 10 km+ - Var   Var 1 kt METAR EDDG 182150Z VRB01KT CAVOK 19/16 Q1019 NOSIG
23:20
V
21 °C 10 km+ - Var   Var 2 kt METAR EDDG 182120Z VRB02KT CAVOK 21/15 Q1019 NOSIG
22:50
V
21 °C 10 km+ - Var   Var 2 kt METAR EDDG 182050Z VRB02KT CAVOK 21/15 Q1019 NOSIG
22:20
V
22 °C 10 km+ - Var   Var 2 kt METAR EDDG 182020Z VRB02KT CAVOK 22/15 Q1019 NOSIG
21:50
V
21 °C 10 km+ - Var   Var 2 kt METAR EDDG 181950Z VRB02KT CAVOK 21/15 Q1019 NOSIG
21:20
V
23 °C 10 km+ - Var   Var 1 kt METAR EDDG 181920Z VRB01KT CAVOK 23/15 Q1019 NOSIG
20:50
V
24 °C 10 km+ - Var   Var 1 kt METAR EDDG 181850Z VRB01KT CAVOK 24/15 Q1019 NOSIG
20:20
V
25 °C 10 km+ - Var   Var 2 kt METAR EDDG 181820Z VRB02KT CAVOK 25/15 Q1019 NOSIG
19:50
V
27 °C 10 km+ - Var   Var 2 kt METAR EDDG 181750Z VRB02KT CAVOK 27/16 Q1019 NOSIG
19:20
V
28 °C 10 km+ - 170°   170° 4 kt METAR EDDG 181720Z 17004KT CAVOK 28/13 Q1019 NOSIG
18:50
V
28 °C 10 km+ - 150°   150° 4 kt METAR EDDG 181650Z 15004KT 120V180 CAVOK 28/13 Q1019 NOSIG
18:20
V
29 °C 10 km+ - 200°   200° 4 kt METAR EDDG 181620Z 20004KT 130V250 CAVOK 29/12 Q1019 NOSIG
17:50
V
29 °C 10 km+ - 210°   210° 6 kt METAR EDDG 181550Z 21006KT 160V250 CAVOK 29/12 Q1019 NOSIG
17:20
V
29 °C 10 km+ - 210°   210° 8 kt METAR EDDG 181520Z 21008KT 170V250 CAVOK 29/12 Q1019 NOSIG
16:50
V
29 °C 10 km+ - 200°   200° 5 kt METAR EDDG 181450Z 20005KT 140V250 CAVOK 29/11 Q1020 NOSIG
16:20
V
29 °C 10 km+ - 180°   180° 7 kt METAR EDDG 181420Z 18007KT 120V260 CAVOK 29/12 Q1020 NOSIG
15:50
V
30 °C 10 km+ - Var   Var 5 kt METAR EDDG 181350Z VRB05KT CAVOK 30/12 Q1020 NOSIG
15:20
V
30 °C 10 km+ - 220°   220° 7 kt METAR EDDG 181320Z 22007KT 170V260 CAVOK 30/12 Q1020 NOSIG
14:50
V
29 °C 10 km+ - 200°   200° 5 kt METAR EDDG 181250Z 20005KT 140V300 CAVOK 29/13 Q1020 NOSIG
14:20
V
28 °C 10 km+ - 200°   200° 7 kt METAR EDDG 181220Z 20007KT 160V240 CAVOK 28/12 Q1020 NOSIG
13:50
V
29 °C 10 km+ - 190°   190° 7 kt METAR EDDG 181150Z 19007KT 100V230 CAVOK 29/13 Q1020 NOSIG
13:20
V
28 °C 10 km+ - 210°   210° 10 kt METAR EDDG 181120Z 21010KT 160V250 CAVOK 28/13 Q1021 NOSIG
12:50
V
28 °C 10 km+ - 200°   200° 8 kt METAR EDDG 181050Z 20008KT 140V240 CAVOK 28/13 Q1021 NOSIG
12:20
V
28 °C 10 km+ - 230°   230° 7 kt METAR EDDG 181020Z 23007KT 180V280 CAVOK 28/14 Q1021 NOSIG
11:50
V
27 °C 10 km+ - 220°   220° 6 kt METAR EDDG 180950Z 22006KT 150V270 CAVOK 27/14 Q1021 NOSIG
11:20
V
26 °C 10 km+ - 220°   220° 6 kt METAR EDDG 180920Z 22006KT 160V260 CAVOK 26/13 Q1021 NOSIG
10:50
V
25 °C 10 km+ - 200°   200° 7 kt METAR EDDG 180850Z 20007KT 150V250 CAVOK 25/14 Q1021 NOSIG
10:20
V
25 °C 10 km+ - 180°   180° 5 kt METAR EDDG 180820Z 18005KT 090V230 CAVOK 25/15 Q1021 NOSIG
09:50
V
23 °C 10 km+ - 170°   170° 5 kt METAR EDDG 180750Z 17005KT 120V220 9999 FEW035 23/14 Q1021 NOSIG
09:20
V
22 °C 10 km+ - 160°   160° 5 kt METAR EDDG 180720Z 16005KT 120V210 9999 FEW030 22/14 Q1021 NOSIG
08:50
V
21 °C 10 km+ - 140°   140° 6 kt METAR EDDG 180650Z 14006KT 110V200 9999 FEW030 21/14 Q1021 NOSIG
08:20
V
20 °C 10 km+ - 130°   130° 4 kt METAR EDDG 180620Z 13004KT 080V200 9999 FEW030 20/14 Q1021 NOSIG
07:50
V
18 °C 10 km+ - 130°   130° 5 kt METAR EDDG 180550Z 13005KT 100V180 9999 FEW020 18/14 Q1021 NOSIG
07:20
V
17 °C 10 km+ - 130°   130° 3 kt METAR EDDG 180520Z 13003KT 070V180 CAVOK 17/13 Q1021 NOSIG
06:50
V
16 °C 10 km+ - 130°   130° 3 kt METAR EDDG 180450Z 13003KT 040V190 CAVOK 16/13 Q1020 NOSIG
06:20
V
15 °C 10 km+ - 130°   130° 4 kt METAR EDDG 180420Z 13004KT 070V190 CAVOK 15/13 Q1020 NOSIG
05:50
V
15 °C 10 km+ - Var   Var 3 kt METAR EDDG 180350Z VRB03KT CAVOK 15/13 Q1020 NOSIG
05:20
V
15 °C 10 km+ - 120°   120° 3 kt METAR EDDG 180320Z 12003KT 040V190 CAVOK 15/13 Q1020 NOSIG
04:50
V
15 °C 10 km+ - 120°   120° 3 kt METAR EDDG 180250Z 12003KT 040V210 CAVOK 15/13 Q1020 NOSIG
04:20
V
15 °C 10 km+ - Var   Var 3 kt METAR EDDG 180220Z VRB03KT CAVOK 15/13 Q1020 NOSIG
03:50
V
16 °C 10 km+ - 130°   130° 4 kt METAR EDDG 180150Z 13004KT 070V160 CAVOK 16/13 Q1020 NOSIG
03:20
V
16 °C 10 km+ - 120°   120° 4 kt METAR EDDG 180120Z 12004KT 060V150 CAVOK 16/13 Q1020 NOSIG
02:50
V
16 °C 10 km+ - 130°   130° 4 kt METAR EDDG 180050Z 13004KT 030V170 CAVOK 16/13 Q1020 NOSIG
02:20
V
16 °C 10 km+ - 110°   110° 4 kt METAR EDDG 180020Z 11004KT 030V160 CAVOK 16/13 Q1020 NOSIG
01:50
V
17 °C 10 km+ - 110°   110° 3 kt METAR EDDG 172350Z 11003KT 050V160 CAVOK 17/13 Q1020 NOSIG
01:20
V
17 °C 10 km+ - Var   Var 4 kt METAR EDDG 172320Z VRB04KT CAVOK 17/13 Q1020 NOSIG
00:50
V
17 °C 10 km+ - 100°   100° 3 kt METAR EDDG 172250Z 10003KT 020V180 CAVOK 17/13 Q1020 NOSIG
00:20
V
17 °C 10 km+ - Var   Var 2 kt METAR EDDG 172220Z VRB02KT CAVOK 17/13 Q1020 NOSIG

17 mei 2022

Tijd Code Weer Temp. Zicht Wolken Wind METAR/SPECI
23:50
V
17 °C 10 km+ - Var   Var 2 kt METAR EDDG 172150Z VRB02KT CAVOK 17/13 Q1020 NOSIG
23:20
V
17 °C 10 km+ - 100°   100° 3 kt METAR EDDG 172120Z 10003KT 030V160 CAVOK 17/13 Q1020 NOSIG
22:50
V
18 °C 10 km+ - 110°   110° 3 kt METAR EDDG 172050Z 11003KT 050V150 CAVOK 18/13 Q1020 NOSIG
22:20
V
18 °C 10 km+ - 110°   110° 3 kt METAR EDDG 172020Z 11003KT 040V160 CAVOK 18/14 Q1020 NOSIG
21:50
V
18 °C 10 km+ - 120°   120° 4 kt METAR EDDG 171950Z 12004KT 030V180 CAVOK 18/14 Q1020 NOSIG
21:20
V
18 °C 10 km+ - Var   Var 2 kt METAR EDDG 171920Z VRB02KT CAVOK 18/14 Q1020 NOSIG
20:50
V
19 °C 10 km+ - Var   Var 2 kt METAR EDDG 171850Z VRB02KT CAVOK 19/14 Q1020 NOSIG
20:20
V
20 °C 10 km+ - Var   Var 2 kt METAR EDDG 171820Z VRB02KT CAVOK 20/14 Q1020 NOSIG
19:50
V
21 °C 10 km+ - Var   Var 3 kt METAR EDDG 171750Z VRB03KT CAVOK 21/14 Q1020 NOSIG
19:20
V
21 °C 10 km+ - 120°   120° 4 kt METAR EDDG 171720Z 12004KT 060V170 CAVOK 21/13 Q1020 NOSIG
18:50
V
21 °C 10 km+ - 150°   150° 4 kt METAR EDDG 171650Z 15004KT 060V190 CAVOK 21/14 Q1020 NOSIG
18:20
V
21 °C 10 km+ - 140°   140° 4 kt METAR EDDG 171620Z 14004KT 090V180 CAVOK 21/14 Q1020 NOSIG
17:50
V
21 °C 10 km+ - 160°   160° 3 kt METAR EDDG 171550Z 16003KT 100V220 CAVOK 21/14 Q1020 NOSIG
17:20
V
21 °C 10 km+ - 200°   200° 4 kt METAR EDDG 171520Z 20004KT 130V270 9999 FEW040 21/13 Q1020 NOSIG
16:50
V
21 °C 10 km+ - Var   Var 3 kt METAR EDDG 171450Z VRB03KT 9999 FEW035 21/14 Q1021 NOSIG
Oudere gegevens

Installeer onze app

Gemakkelijke toegang tot al het luchtvaartweer op je mobiele telefoon en tablet.
Met veel functies die niet op de website beschikbaar zijn, zoals offline ondersteuning en een persoonlijke lijst van vliegvelden.

Met cookies volgen wij en derde partijen jouw internetgedrag binnen onze site. Als je verdergaat gaan we ervan uit dat je dit goedvindt. Meer info